sensor_id;sensor_type;location;lat;lon;timestamp;temperature;humidity
14737;DHT22;7459;53.590;10.062;2023-07-31T00:00:15;16.00;99.90
14737;DHT22;7459;53.590;10.062;2023-07-31T00:02:41;16.00;99.90
14737;DHT22;7459;53.590;10.062;2023-07-31T00:05:08;16.00;99.90
14737;DHT22;7459;53.590;10.062;2023-07-31T00:07:35;16.00;99.90
14737;DHT22;7459;53.590;10.062;2023-07-31T00:10:00;16.00;99.90
14737;DHT22;7459;53.590;10.062;2023-07-31T00:12:26;16.00;99.90
14737;DHT22;7459;53.590;10.062;2023-07-31T00:14:52;16.00;99.90
14737;DHT22;7459;53.590;10.062;2023-07-31T00:17:18;16.00;99.90
14737;DHT22;7459;53.590;10.062;2023-07-31T00:19:44;16.00;99.90
14737;DHT22;7459;53.590;10.062;2023-07-31T00:22:11;16.10;99.90
14737;DHT22;7459;53.590;10.062;2023-07-31T00:24:37;16.00;99.90
14737;DHT22;7459;53.590;10.062;2023-07-31T00:27:03;16.00;99.90
14737;DHT22;7459;53.590;10.062;2023-07-31T00:29:29;16.00;99.90
14737;DHT22;7459;53.590;10.062;2023-07-31T00:31:55;16.00;99.90
14737;DHT22;7459;53.590;10.062;2023-07-31T00:34:20;16.00;99.90
14737;DHT22;7459;53.590;10.062;2023-07-31T00:36:46;16.00;99.90
14737;DHT22;7459;53.590;10.062;2023-07-31T00:39:12;16.00;99.90
14737;DHT22;7459;53.590;10.062;2023-07-31T00:41:37;16.00;99.90
14737;DHT22;7459;53.590;10.062;2023-07-31T00:44:03;16.10;99.90
14737;DHT22;7459;53.590;10.062;2023-07-31T00:46:29;16.10;99.90
14737;DHT22;7459;53.590;10.062;2023-07-31T00:48:54;16.10;99.90
14737;DHT22;7459;53.590;10.062;2023-07-31T00:51:20;16.10;99.90
14737;DHT22;7459;53.590;10.062;2023-07-31T00:53:47;16.10;99.90
14737;DHT22;7459;53.590;10.062;2023-07-31T00:56:12;16.20;99.90
14737;DHT22;7459;53.590;10.062;2023-07-31T00:58:39;16.20;99.90
14737;DHT22;7459;53.590;10.062;2023-07-31T01:01:05;16.20;99.90
14737;DHT22;7459;53.590;10.062;2023-07-31T01:03:31;16.20;99.90
14737;DHT22;7459;53.590;10.062;2023-07-31T01:06:20;16.20;99.90
14737;DHT22;7459;53.590;10.062;2023-07-31T01:09:00;16.20;99.90
14737;DHT22;7459;53.590;10.062;2023-07-31T01:11:37;16.30;99.90
14737;DHT22;7459;53.590;10.062;2023-07-31T01:14:06;16.30;99.90
14737;DHT22;7459;53.590;10.062;2023-07-31T01:16:32;16.20;99.90
14737;DHT22;7459;53.590;10.062;2023-07-31T01:18:57;16.20;99.90
14737;DHT22;7459;53.590;10.062;2023-07-31T01:24:29;16.20;99.90
14737;DHT22;7459;53.590;10.062;2023-07-31T01:27:14;16.20;99.90
14737;DHT22;7459;53.590;10.062;2023-07-31T01:30:20;16.20;99.90
14737;DHT22;7459;53.590;10.062;2023-07-31T01:32:48;16.20;99.90
14737;DHT22;7459;53.590;10.062;2023-07-31T01:35:14;16.20;99.90
14737;DHT22;7459;53.590;10.062;2023-07-31T01:37:40;16.20;99.90
14737;DHT22;7459;53.590;10.062;2023-07-31T01:40:06;16.20;99.90
14737;DHT22;7459;53.590;10.062;2023-07-31T01:42:33;16.20;99.90
14737;DHT22;7459;53.590;10.062;2023-07-31T01:44:58;16.20;99.90
14737;DHT22;7459;53.590;10.062;2023-07-31T01:47:24;16.20;99.90
14737;DHT22;7459;53.590;10.062;2023-07-31T01:49:50;16.20;99.90
14737;DHT22;7459;53.590;10.062;2023-07-31T01:52:15;16.30;99.90
14737;DHT22;7459;53.590;10.062;2023-07-31T01:54:41;16.20;99.90
14737;DHT22;7459;53.590;10.062;2023-07-31T01:57:07;16.20;99.90
14737;DHT22;7459;53.590;10.062;2023-07-31T01:59:32;16.20;99.90
14737;DHT22;7459;53.590;10.062;2023-07-31T02:01:58;16.20;99.90
14737;DHT22;7459;53.590;10.062;2023-07-31T02:06:59;16.20;99.90
14737;DHT22;7459;53.590;10.062;2023-07-31T02:09:25;16.20;99.90
14737;DHT22;7459;53.590;10.062;2023-07-31T02:11:50;16.20;99.90
14737;DHT22;7459;53.590;10.062;2023-07-31T02:14:16;16.20;99.90
14737;DHT22;7459;53.590;10.062;2023-07-31T02:16:42;16.20;99.90
14737;DHT22;7459;53.590;10.062;2023-07-31T02:19:11;16.20;99.90
14737;DHT22;7459;53.590;10.062;2023-07-31T02:21:38;16.20;99.90
14737;DHT22;7459;53.590;10.062;2023-07-31T02:24:04;16.20;99.90
14737;DHT22;7459;53.590;10.062;2023-07-31T02:26:29;16.20;99.90
14737;DHT22;7459;53.590;10.062;2023-07-31T02:28:55;16.30;99.90
14737;DHT22;7459;53.590;10.062;2023-07-31T02:31:21;16.30;99.90
14737;DHT22;7459;53.590;10.062;2023-07-31T02:33:46;16.30;99.90
14737;DHT22;7459;53.590;10.062;2023-07-31T02:36:12;16.30;99.90
14737;DHT22;7459;53.590;10.062;2023-07-31T02:38:38;16.30;99.90
14737;DHT22;7459;53.590;10.062;2023-07-31T02:41:04;16.30;99.90
14737;DHT22;7459;53.590;10.062;2023-07-31T02:43:29;16.20;99.90
14737;DHT22;7459;53.590;10.062;2023-07-31T02:45:55;16.30;99.90
14737;DHT22;7459;53.590;10.062;2023-07-31T02:48:21;16.30;99.90
14737;DHT22;7459;53.590;10.062;2023-07-31T02:50:47;16.30;99.90
14737;DHT22;7459;53.590;10.062;2023-07-31T02:53:13;16.30;99.90
14737;DHT22;7459;53.590;10.062;2023-07-31T02:55:40;16.30;99.90
14737;DHT22;7459;53.590;10.062;2023-07-31T02:58:06;16.30;99.90
14737;DHT22;7459;53.590;10.062;2023-07-31T03:00:32;16.30;99.90
14737;DHT22;7459;53.590;10.062;2023-07-31T03:02:57;16.30;99.90
14737;DHT22;7459;53.590;10.062;2023-07-31T03:05:23;16.30;99.90
14737;DHT22;7459;53.590;10.062;2023-07-31T03:07:49;16.30;99.90
14737;DHT22;7459;53.590;10.062;2023-07-31T03:10:15;16.30;99.90
14737;DHT22;7459;53.590;10.062;2023-07-31T03:12:40;16.30;99.90
14737;DHT22;7459;53.590;10.062;2023-07-31T03:15:07;16.30;99.90
14737;DHT22;7459;53.590;10.062;2023-07-31T03:17:33;16.30;99.90
14737;DHT22;7459;53.590;10.062;2023-07-31T03:19:58;16.30;99.90
14737;DHT22;7459;53.590;10.062;2023-07-31T03:22:24;16.20;99.90
14737;DHT22;7459;53.590;10.062;2023-07-31T03:24:50;16.20;99.90
14737;DHT22;7459;53.590;10.062;2023-07-31T03:27:16;16.20;99.90
14737;DHT22;7459;53.590;10.062;2023-07-31T03:29:41;16.30;99.90
14737;DHT22;7459;53.590;10.062;2023-07-31T03:32:07;16.20;99.90
14737;DHT22;7459;53.590;10.062;2023-07-31T03:34:33;16.30;99.90
14737;DHT22;7459;53.590;10.062;2023-07-31T03:36:59;16.30;99.90
14737;DHT22;7459;53.590;10.062;2023-07-31T03:39:25;16.20;99.90
14737;DHT22;7459;53.590;10.062;2023-07-31T03:41:50;16.20;99.90
14737;DHT22;7459;53.590;10.062;2023-07-31T03:44:16;16.20;99.90
14737;DHT22;7459;53.590;10.062;2023-07-31T03:46:42;16.20;99.90
14737;DHT22;7459;53.590;10.062;2023-07-31T03:49:07;16.20;99.90
14737;DHT22;7459;53.590;10.062;2023-07-31T03:51:33;16.30;99.90
14737;DHT22;7459;53.590;10.062;2023-07-31T03:53:59;16.30;99.90
14737;DHT22;7459;53.590;10.062;2023-07-31T03:56:25;16.20;99.90
14737;DHT22;7459;53.590;10.062;2023-07-31T03:58:50;16.30;99.90
14737;DHT22;7459;53.590;10.062;2023-07-31T04:01:16;16.30;99.90
14737;DHT22;7459;53.590;10.062;2023-07-31T04:03:43;16.30;99.90
14737;DHT22;7459;53.590;10.062;2023-07-31T04:06:08;16.30;99.90
14737;DHT22;7459;53.590;10.062;2023-07-31T04:08:35;16.20;99.90
14737;DHT22;7459;53.590;10.062;2023-07-31T04:11:01;16.30;99.90
14737;DHT22;7459;53.590;10.062;2023-07-31T04:13:27;16.30;99.90
14737;DHT22;7459;53.590;10.062;2023-07-31T04:15:54;16.30;99.90
14737;DHT22;7459;53.590;10.062;2023-07-31T04:18:20;16.30;99.90
14737;DHT22;7459;53.590;10.062;2023-07-31T04:20:46;16.40;99.90
14737;DHT22;7459;53.590;10.062;2023-07-31T04:23:11;16.30;99.90
14737;DHT22;7459;53.590;10.062;2023-07-31T04:25:37;16.40;99.90
14737;DHT22;7459;53.590;10.062;2023-07-31T04:28:03;16.30;99.90
14737;DHT22;7459;53.590;10.062;2023-07-31T04:30:29;16.30;99.90
14737;DHT22;7459;53.590;10.062;2023-07-31T04:32:54;16.30;99.90
14737;DHT22;7459;53.590;10.062;2023-07-31T04:35:20;16.30;99.90
14737;DHT22;7459;53.590;10.062;2023-07-31T04:37:46;16.40;99.90
14737;DHT22;7459;53.590;10.062;2023-07-31T04:40:14;16.30;99.90
14737;DHT22;7459;53.590;10.062;2023-07-31T04:42:40;16.30;99.90
14737;DHT22;7459;53.590;10.062;2023-07-31T04:45:08;16.20;99.90
14737;DHT22;7459;53.590;10.062;2023-07-31T04:47:34;16.20;99.90
14737;DHT22;7459;53.590;10.062;2023-07-31T04:50:02;16.20;99.90
14737;DHT22;7459;53.590;10.062;2023-07-31T04:52:28;16.10;99.90
14737;DHT22;7459;53.590;10.062;2023-07-31T04:54:54;16.20;99.90
14737;DHT22;7459;53.590;10.062;2023-07-31T04:57:19;16.20;99.90
14737;DHT22;7459;53.590;10.062;2023-07-31T04:59:45;16.20;99.90
14737;DHT22;7459;53.590;10.062;2023-07-31T05:02:12;16.20;99.90
14737;DHT22;7459;53.590;10.062;2023-07-31T05:04:38;16.20;99.90
14737;DHT22;7459;53.590;10.062;2023-07-31T05:07:04;16.10;99.90
14737;DHT22;7459;53.590;10.062;2023-07-31T05:09:30;16.10;99.90
14737;DHT22;7459;53.590;10.062;2023-07-31T05:11:56;16.20;99.90
14737;DHT22;7459;53.590;10.062;2023-07-31T05:14:21;16.20;99.90
14737;DHT22;7459;53.590;10.062;2023-07-31T05:16:47;16.20;99.90
14737;DHT22;7459;53.590;10.062;2023-07-31T05:19:13;16.20;99.90
14737;DHT22;7459;53.590;10.062;2023-07-31T05:21:38;16.20;99.90
14737;DHT22;7459;53.590;10.062;2023-07-31T05:24:04;16.20;99.90
14737;DHT22;7459;53.590;10.062;2023-07-31T05:26:30;16.10;99.90
14737;DHT22;7459;53.590;10.062;2023-07-31T05:28:56;16.10;99.90
14737;DHT22;7459;53.590;10.062;2023-07-31T05:31:23;16.10;99.90
14737;DHT22;7459;53.590;10.062;2023-07-31T05:33:50;16.10;99.90
14737;DHT22;7459;53.590;10.062;2023-07-31T05:36:16;16.00;99.90
14737;DHT22;7459;53.590;10.062;2023-07-31T05:38:42;16.10;99.90
14737;DHT22;7459;53.590;10.062;2023-07-31T05:41:12;16.10;99.90
14737;DHT22;7459;53.590;10.062;2023-07-31T05:43:38;16.00;99.90
14737;DHT22;7459;53.590;10.062;2023-07-31T05:46:04;16.00;99.90
14737;DHT22;7459;53.590;10.062;2023-07-31T05:48:30;16.00;99.90
14737;DHT22;7459;53.590;10.062;2023-07-31T05:50:55;16.00;99.90
14737;DHT22;7459;53.590;10.062;2023-07-31T05:53:21;16.00;99.90
14737;DHT22;7459;53.590;10.062;2023-07-31T05:55:47;16.10;99.90
14737;DHT22;7459;53.590;10.062;2023-07-31T05:58:13;16.10;99.90
14737;DHT22;7459;53.590;10.062;2023-07-31T06:00:38;16.10;99.90
14737;DHT22;7459;53.590;10.062;2023-07-31T06:03:04;16.00;99.90
14737;DHT22;7459;53.590;10.062;2023-07-31T06:05:30;16.00;99.90
14737;DHT22;7459;53.590;10.062;2023-07-31T06:07:56;16.00;99.90
14737;DHT22;7459;53.590;10.062;2023-07-31T06:10:22;16.10;99.90
14737;DHT22;7459;53.590;10.062;2023-07-31T06:12:48;16.10;99.90
14737;DHT22;7459;53.590;10.062;2023-07-31T06:15:14;16.10;99.90
14737;DHT22;7459;53.590;10.062;2023-07-31T06:17:40;16.20;99.90
14737;DHT22;7459;53.590;10.062;2023-07-31T06:20:06;16.10;99.90
14737;DHT22;7459;53.590;10.062;2023-07-31T06:22:32;16.10;99.90
14737;DHT22;7459;53.590;10.062;2023-07-31T06:24:59;16.10;99.90
14737;DHT22;7459;53.590;10.062;2023-07-31T06:27:25;16.10;99.90
14737;DHT22;7459;53.590;10.062;2023-07-31T06:29:51;16.10;99.90
14737;DHT22;7459;53.590;10.062;2023-07-31T06:32:16;16.20;99.90
14737;DHT22;7459;53.590;10.062;2023-07-31T06:34:42;16.20;99.90
14737;DHT22;7459;53.590;10.062;2023-07-31T06:37:08;16.20;99.90
14737;DHT22;7459;53.590;10.062;2023-07-31T06:39:34;16.20;99.90
14737;DHT22;7459;53.590;10.062;2023-07-31T06:41:59;16.20;99.90
14737;DHT22;7459;53.590;10.062;2023-07-31T06:44:25;16.20;99.90
14737;DHT22;7459;53.590;10.062;2023-07-31T06:46:51;16.20;99.90
14737;DHT22;7459;53.590;10.062;2023-07-31T06:49:16;16.20;99.90
14737;DHT22;7459;53.590;10.062;2023-07-31T06:51:42;16.10;99.90
14737;DHT22;7459;53.590;10.062;2023-07-31T06:54:09;16.20;99.90
14737;DHT22;7459;53.590;10.062;2023-07-31T06:56:35;16.20;99.90
14737;DHT22;7459;53.590;10.062;2023-07-31T06:59:03;16.20;99.90
14737;DHT22;7459;53.590;10.062;2023-07-31T07:01:29;16.20;99.90
14737;DHT22;7459;53.590;10.062;2023-07-31T07:03:54;16.20;99.90
14737;DHT22;7459;53.590;10.062;2023-07-31T07:06:22;16.20;99.90
14737;DHT22;7459;53.590;10.062;2023-07-31T07:08:48;16.20;99.90
14737;DHT22;7459;53.590;10.062;2023-07-31T07:11:14;16.20;99.90
14737;DHT22;7459;53.590;10.062;2023-07-31T07:13:40;16.20;99.90
14737;DHT22;7459;53.590;10.062;2023-07-31T07:16:05;16.20;99.90
14737;DHT22;7459;53.590;10.062;2023-07-31T07:18:31;16.20;99.90
14737;DHT22;7459;53.590;10.062;2023-07-31T07:20:57;16.20;99.90
14737;DHT22;7459;53.590;10.062;2023-07-31T07:23:24;16.10;99.90
14737;DHT22;7459;53.590;10.062;2023-07-31T07:25:50;16.10;99.90
14737;DHT22;7459;53.590;10.062;2023-07-31T07:28:16;16.10;99.90
14737;DHT22;7459;53.590;10.062;2023-07-31T07:30:42;16.10;99.90
14737;DHT22;7459;53.590;10.062;2023-07-31T07:33:08;16.10;99.90
14737;DHT22;7459;53.590;10.062;2023-07-31T07:35:34;16.10;99.90
14737;DHT22;7459;53.590;10.062;2023-07-31T07:38:02;16.10;99.90
14737;DHT22;7459;53.590;10.062;2023-07-31T07:40:28;16.10;99.90
14737;DHT22;7459;53.590;10.062;2023-07-31T07:42:54;16.10;99.90
14737;DHT22;7459;53.590;10.062;2023-07-31T07:45:20;16.10;99.90
14737;DHT22;7459;53.590;10.062;2023-07-31T07:47:45;16.10;99.90
14737;DHT22;7459;53.590;10.062;2023-07-31T07:50:11;16.10;99.90
14737;DHT22;7459;53.590;10.062;2023-07-31T07:52:37;16.10;99.90
14737;DHT22;7459;53.590;10.062;2023-07-31T07:55:03;16.10;99.90
14737;DHT22;7459;53.590;10.062;2023-07-31T07:57:29;16.20;99.90
14737;DHT22;7459;53.590;10.062;2023-07-31T07:59:55;16.20;99.90
14737;DHT22;7459;53.590;10.062;2023-07-31T08:02:22;16.30;99.90
14737;DHT22;7459;53.590;10.062;2023-07-31T08:04:47;16.30;99.90
14737;DHT22;7459;53.590;10.062;2023-07-31T08:07:14;16.30;99.90
14737;DHT22;7459;53.590;10.062;2023-07-31T08:09:40;16.40;99.90
14737;DHT22;7459;53.590;10.062;2023-07-31T08:12:06;16.40;99.90
14737;DHT22;7459;53.590;10.062;2023-07-31T08:14:32;16.40;99.90
14737;DHT22;7459;53.590;10.062;2023-07-31T08:16:58;16.40;99.90
14737;DHT22;7459;53.590;10.062;2023-07-31T08:19:24;16.40;99.90
14737;DHT22;7459;53.590;10.062;2023-07-31T08:21:50;16.40;99.90
14737;DHT22;7459;53.590;10.062;2023-07-31T08:24:15;16.40;99.90
14737;DHT22;7459;53.590;10.062;2023-07-31T08:26:42;16.40;99.90
14737;DHT22;7459;53.590;10.062;2023-07-31T08:29:08;16.50;99.90
14737;DHT22;7459;53.590;10.062;2023-07-31T08:31:33;16.50;99.90
14737;DHT22;7459;53.590;10.062;2023-07-31T08:34:00;16.50;99.90
14737;DHT22;7459;53.590;10.062;2023-07-31T08:36:26;16.50;99.90
14737;DHT22;7459;53.590;10.062;2023-07-31T08:38:52;16.60;99.90
14737;DHT22;7459;53.590;10.062;2023-07-31T08:41:17;16.60;99.90
14737;DHT22;7459;53.590;10.062;2023-07-31T08:43:48;16.60;99.90
14737;DHT22;7459;53.590;10.062;2023-07-31T08:46:15;16.60;99.90
14737;DHT22;7459;53.590;10.062;2023-07-31T08:48:42;16.60;99.90
14737;DHT22;7459;53.590;10.062;2023-07-31T08:51:08;16.60;99.90
14737;DHT22;7459;53.590;10.062;2023-07-31T08:53:34;16.70;99.90
14737;DHT22;7459;53.590;10.062;2023-07-31T08:56:00;16.70;99.90
14737;DHT22;7459;53.590;10.062;2023-07-31T08:58:32;16.70;99.90
14737;DHT22;7459;53.590;10.062;2023-07-31T09:01:01;16.80;99.90
14737;DHT22;7459;53.590;10.062;2023-07-31T09:03:33;16.80;99.90
14737;DHT22;7459;53.590;10.062;2023-07-31T09:06:02;16.70;99.90
14737;DHT22;7459;53.590;10.062;2023-07-31T09:08:30;16.80;99.90
14737;DHT22;7459;53.590;10.062;2023-07-31T09:11:02;16.80;99.90
14737;DHT22;7459;53.590;10.062;2023-07-31T09:13:32;16.80;99.90
14737;DHT22;7459;53.590;10.062;2023-07-31T09:15:58;16.80;99.90
14737;DHT22;7459;53.590;10.062;2023-07-31T09:18:24;16.80;99.90
14737;DHT22;7459;53.590;10.062;2023-07-31T09:21:05;16.80;99.90
14737;DHT22;7459;53.590;10.062;2023-07-31T09:23:44;16.80;99.90
14737;DHT22;7459;53.590;10.062;2023-07-31T09:26:11;16.80;99.90
14737;DHT22;7459;53.590;10.062;2023-07-31T09:28:54;16.80;99.90
14737;DHT22;7459;53.590;10.062;2023-07-31T09:31:41;16.80;99.90
14737;DHT22;7459;53.590;10.062;2023-07-31T09:34:07;16.70;99.90
14737;DHT22;7459;53.590;10.062;2023-07-31T09:36:49;16.60;99.90
14737;DHT22;7459;53.590;10.062;2023-07-31T09:39:16;16.60;99.90
14737;DHT22;7459;53.590;10.062;2023-07-31T09:41:44;16.60;99.90
14737;DHT22;7459;53.590;10.062;2023-07-31T09:44:13;16.50;99.90
14737;DHT22;7459;53.590;10.062;2023-07-31T09:46:38;16.50;99.90
14737;DHT22;7459;53.590;10.062;2023-07-31T09:49:07;16.60;99.90
14737;DHT22;7459;53.590;10.062;2023-07-31T09:51:34;16.60;99.90
14737;DHT22;7459;53.590;10.062;2023-07-31T09:54:14;16.60;99.90
14737;DHT22;7459;53.590;10.062;2023-07-31T09:56:43;16.70;99.90
14737;DHT22;7459;53.590;10.062;2023-07-31T09:59:18;16.70;99.90
14737;DHT22;7459;53.590;10.062;2023-07-31T10:01:45;16.70;99.90
14737;DHT22;7459;53.590;10.062;2023-07-31T10:04:13;16.70;99.90
14737;DHT22;7459;53.590;10.062;2023-07-31T10:06:40;16.70;99.90
14737;DHT22;7459;53.590;10.062;2023-07-31T10:09:10;16.70;99.90
14737;DHT22;7459;53.590;10.062;2023-07-31T10:11:41;16.70;99.90
14737;DHT22;7459;53.590;10.062;2023-07-31T10:14:09;16.80;99.90
14737;DHT22;7459;53.590;10.062;2023-07-31T10:16:38;16.70;99.90
14737;DHT22;7459;53.590;10.062;2023-07-31T10:19:05;16.60;99.90
14737;DHT22;7459;53.590;10.062;2023-07-31T10:21:31;16.70;99.90
14737;DHT22;7459;53.590;10.062;2023-07-31T10:24:04;16.60;99.90
14737;DHT22;7459;53.590;10.062;2023-07-31T10:26:31;16.60;99.90
14737;DHT22;7459;53.590;10.062;2023-07-31T10:28:58;16.60;99.90
14737;DHT22;7459;53.590;10.062;2023-07-31T10:31:24;16.60;99.90
14737;DHT22;7459;53.590;10.062;2023-07-31T10:33:52;16.60;99.90
14737;DHT22;7459;53.590;10.062;2023-07-31T10:36:19;16.70;99.90
14737;DHT22;7459;53.590;10.062;2023-07-31T10:38:46;16.60;99.90
14737;DHT22;7459;53.590;10.062;2023-07-31T10:41:14;16.60;99.90
14737;DHT22;7459;53.590;10.062;2023-07-31T10:43:40;16.60;99.90
14737;DHT22;7459;53.590;10.062;2023-07-31T10:46:11;16.50;99.90
14737;DHT22;7459;53.590;10.062;2023-07-31T10:48:39;16.50;99.90
14737;DHT22;7459;53.590;10.062;2023-07-31T10:51:10;16.40;99.90
14737;DHT22;7459;53.590;10.062;2023-07-31T10:53:38;16.40;99.90
14737;DHT22;7459;53.590;10.062;2023-07-31T10:56:08;16.40;99.90
14737;DHT22;7459;53.590;10.062;2023-07-31T10:58:38;16.40;99.90
14737;DHT22;7459;53.590;10.062;2023-07-31T11:01:05;16.30;99.90
14737;DHT22;7459;53.590;10.062;2023-07-31T11:03:50;16.40;99.90
14737;DHT22;7459;53.590;10.062;2023-07-31T11:06:19;16.40;99.90
14737;DHT22;7459;53.590;10.062;2023-07-31T11:08:49;16.50;99.90
14737;DHT22;7459;53.590;10.062;2023-07-31T11:11:19;16.50;99.90
14737;DHT22;7459;53.590;10.062;2023-07-31T11:13:50;16.40;99.90
14737;DHT22;7459;53.590;10.062;2023-07-31T11:16:24;16.40;99.90
14737;DHT22;7459;53.590;10.062;2023-07-31T11:18:51;16.40;99.90
14737;DHT22;7459;53.590;10.062;2023-07-31T11:21:19;16.50;99.90
14737;DHT22;7459;53.590;10.062;2023-07-31T11:23:50;16.50;99.90
14737;DHT22;7459;53.590;10.062;2023-07-31T11:26:23;16.60;99.90
14737;DHT22;7459;53.590;10.062;2023-07-31T11:28:50;16.70;99.90
14737;DHT22;7459;53.590;10.062;2023-07-31T11:31:17;16.60;99.90
14737;DHT22;7459;53.590;10.062;2023-07-31T11:33:43;16.50;99.90
14737;DHT22;7459;53.590;10.062;2023-07-31T11:36:19;16.60;99.90
14737;DHT22;7459;53.590;10.062;2023-07-31T11:38:45;16.50;99.90
14737;DHT22;7459;53.590;10.062;2023-07-31T11:41:14;16.50;99.90
14737;DHT22;7459;53.590;10.062;2023-07-31T11:43:41;16.50;99.90
14737;DHT22;7459;53.590;10.062;2023-07-31T11:46:07;16.50;99.90
14737;DHT22;7459;53.590;10.062;2023-07-31T11:48:37;16.40;99.90
14737;DHT22;7459;53.590;10.062;2023-07-31T11:51:08;16.40;99.90
14737;DHT22;7459;53.590;10.062;2023-07-31T11:56:18;16.40;99.90
14737;DHT22;7459;53.590;10.062;2023-07-31T11:58:52;16.30;99.90
14737;DHT22;7459;53.590;10.062;2023-07-31T12:01:21;16.40;99.90
14737;DHT22;7459;53.590;10.062;2023-07-31T12:03:47;16.40;99.90
14737;DHT22;7459;53.590;10.062;2023-07-31T12:06:13;16.40;99.90
14737;DHT22;7459;53.590;10.062;2023-07-31T12:08:39;16.40;99.90
14737;DHT22;7459;53.590;10.062;2023-07-31T12:11:07;16.40;99.90
14737;DHT22;7459;53.590;10.062;2023-07-31T12:13:35;16.50;99.90
14737;DHT22;7459;53.590;10.062;2023-07-31T12:16:02;16.60;99.90
14737;DHT22;7459;53.590;10.062;2023-07-31T12:18:33;16.50;99.90
14737;DHT22;7459;53.590;10.062;2023-07-31T12:21:02;16.50;99.90
14737;DHT22;7459;53.590;10.062;2023-07-31T12:23:31;16.60;99.90
14737;DHT22;7459;53.590;10.062;2023-07-31T12:26:09;16.60;99.90
14737;DHT22;7459;53.590;10.062;2023-07-31T12:28:47;16.60;99.90
14737;DHT22;7459;53.590;10.062;2023-07-31T12:31:23;16.60;99.90
14737;DHT22;7459;53.590;10.062;2023-07-31T12:33:53;16.60;99.90
14737;DHT22;7459;53.590;10.062;2023-07-31T12:36:24;16.60;99.90
14737;DHT22;7459;53.590;10.062;2023-07-31T12:38:51;16.70;99.90
14737;DHT22;7459;53.590;10.062;2023-07-31T12:41:18;16.70;99.90
14737;DHT22;7459;53.590;10.062;2023-07-31T12:43:44;16.70;99.90
14737;DHT22;7459;53.590;10.062;2023-07-31T12:46:11;16.80;99.90
14737;DHT22;7459;53.590;10.062;2023-07-31T12:48:39;16.80;99.90
14737;DHT22;7459;53.590;10.062;2023-07-31T12:51:05;16.80;99.90
14737;DHT22;7459;53.590;10.062;2023-07-31T12:53:32;16.80;99.90
14737;DHT22;7459;53.590;10.062;2023-07-31T12:55:58;16.80;99.90
14737;DHT22;7459;53.590;10.062;2023-07-31T12:58:24;16.90;99.90
14737;DHT22;7459;53.590;10.062;2023-07-31T13:00:50;16.90;99.90
14737;DHT22;7459;53.590;10.062;2023-07-31T13:03:16;16.90;99.90
14737;DHT22;7459;53.590;10.062;2023-07-31T13:05:41;17.00;99.90
14737;DHT22;7459;53.590;10.062;2023-07-31T13:08:07;16.90;99.90
14737;DHT22;7459;53.590;10.062;2023-07-31T13:10:33;17.00;99.90
14737;DHT22;7459;53.590;10.062;2023-07-31T13:12:58;17.00;99.90
14737;DHT22;7459;53.590;10.062;2023-07-31T13:15:24;17.00;99.90
14737;DHT22;7459;53.590;10.062;2023-07-31T13:17:50;17.00;99.90
14737;DHT22;7459;53.590;10.062;2023-07-31T13:20:15;17.00;99.90
14737;DHT22;7459;53.590;10.062;2023-07-31T13:22:41;17.00;99.90
14737;DHT22;7459;53.590;10.062;2023-07-31T13:25:07;17.00;99.90
14737;DHT22;7459;53.590;10.062;2023-07-31T13:27:34;17.00;99.90
14737;DHT22;7459;53.590;10.062;2023-07-31T13:30:00;17.00;99.90
14737;DHT22;7459;53.590;10.062;2023-07-31T13:32:26;17.00;99.90
14737;DHT22;7459;53.590;10.062;2023-07-31T13:34:52;17.00;99.90
14737;DHT22;7459;53.590;10.062;2023-07-31T13:37:17;17.10;99.90
14737;DHT22;7459;53.590;10.062;2023-07-31T13:39:43;17.00;99.90
14737;DHT22;7459;53.590;10.062;2023-07-31T13:42:09;17.10;99.90
14737;DHT22;7459;53.590;10.062;2023-07-31T13:44:38;17.10;99.90
14737;DHT22;7459;53.590;10.062;2023-07-31T13:47:04;17.10;99.90
14737;DHT22;7459;53.590;10.062;2023-07-31T13:49:30;17.00;99.90
14737;DHT22;7459;53.590;10.062;2023-07-31T13:51:56;17.10;99.90
14737;DHT22;7459;53.590;10.062;2023-07-31T13:54:23;17.00;99.90
14737;DHT22;7459;53.590;10.062;2023-07-31T13:56:49;17.00;99.90
14737;DHT22;7459;53.590;10.062;2023-07-31T13:59:15;17.00;99.90
14737;DHT22;7459;53.590;10.062;2023-07-31T14:01:42;17.00;99.90
14737;DHT22;7459;53.590;10.062;2023-07-31T14:04:08;17.00;99.90
14737;DHT22;7459;53.590;10.062;2023-07-31T14:06:34;17.00;99.90
14737;DHT22;7459;53.590;10.062;2023-07-31T14:08:59;17.00;99.90
14737;DHT22;7459;53.590;10.062;2023-07-31T14:11:28;17.00;99.90
14737;DHT22;7459;53.590;10.062;2023-07-31T14:13:56;17.00;99.90
14737;DHT22;7459;53.590;10.062;2023-07-31T14:16:21;17.00;99.90
14737;DHT22;7459;53.590;10.062;2023-07-31T14:18:47;17.00;99.90
14737;DHT22;7459;53.590;10.062;2023-07-31T14:21:13;17.00;99.90
14737;DHT22;7459;53.590;10.062;2023-07-31T14:23:40;17.00;99.90
14737;DHT22;7459;53.590;10.062;2023-07-31T14:26:06;17.00;99.90
14737;DHT22;7459;53.590;10.062;2023-07-31T14:28:32;17.00;99.90
14737;DHT22;7459;53.590;10.062;2023-07-31T14:30:58;17.00;99.90
14737;DHT22;7459;53.590;10.062;2023-07-31T14:33:24;17.00;99.90
14737;DHT22;7459;53.590;10.062;2023-07-31T14:35:49;17.00;99.90
14737;DHT22;7459;53.590;10.062;2023-07-31T14:38:16;17.00;99.90
14737;DHT22;7459;53.590;10.062;2023-07-31T14:40:42;17.00;99.90
14737;DHT22;7459;53.590;10.062;2023-07-31T14:43:08;17.00;99.90
14737;DHT22;7459;53.590;10.062;2023-07-31T14:45:33;17.00;99.90
14737;DHT22;7459;53.590;10.062;2023-07-31T14:47:59;17.10;99.90
14737;DHT22;7459;53.590;10.062;2023-07-31T14:50:25;17.10;99.90
14737;DHT22;7459;53.590;10.062;2023-07-31T14:52:51;17.10;99.90
14737;DHT22;7459;53.590;10.062;2023-07-31T14:55:18;17.10;99.90
14737;DHT22;7459;53.590;10.062;2023-07-31T14:57:44;17.10;99.90
14737;DHT22;7459;53.590;10.062;2023-07-31T15:00:10;17.20;99.90
14737;DHT22;7459;53.590;10.062;2023-07-31T15:02:39;17.20;99.90
14737;DHT22;7459;53.590;10.062;2023-07-31T15:05:06;17.20;99.90
14737;DHT22;7459;53.590;10.062;2023-07-31T15:07:32;17.20;99.90
14737;DHT22;7459;53.590;10.062;2023-07-31T15:09:59;17.30;99.90
14737;DHT22;7459;53.590;10.062;2023-07-31T15:12:26;17.30;99.90
14737;DHT22;7459;53.590;10.062;2023-07-31T15:14:53;17.30;99.90
14737;DHT22;7459;53.590;10.062;2023-07-31T15:17:18;17.30;99.90
14737;DHT22;7459;53.590;10.062;2023-07-31T15:19:44;17.30;99.90
14737;DHT22;7459;53.590;10.062;2023-07-31T15:22:10;17.30;99.90
14737;DHT22;7459;53.590;10.062;2023-07-31T15:24:36;17.30;99.90
14737;DHT22;7459;53.590;10.062;2023-07-31T15:27:02;17.30;99.90
14737;DHT22;7459;53.590;10.062;2023-07-31T15:29:28;17.40;99.90
14737;DHT22;7459;53.590;10.062;2023-07-31T15:31:55;17.40;99.90
14737;DHT22;7459;53.590;10.062;2023-07-31T15:34:21;17.40;99.90
14737;DHT22;7459;53.590;10.062;2023-07-31T15:36:47;17.30;99.90